sensor_id;sensor_type;location;lat;lon;timestamp;temperature;humidity
25933;DHT22;13731;51.166;4.474;2022-12-26T00:01:35;10.60;99.90
25933;DHT22;13731;51.166;4.474;2022-12-26T00:04:01;10.70;99.90
25933;DHT22;13731;51.166;4.474;2022-12-26T00:06:27;10.80;99.90
25933;DHT22;13731;51.166;4.474;2022-12-26T00:08:53;10.70;99.90
25933;DHT22;13731;51.166;4.474;2022-12-26T00:11:22;10.80;99.90
25933;DHT22;13731;51.166;4.474;2022-12-26T00:13:52;10.80;99.90
25933;DHT22;13731;51.166;4.474;2022-12-26T00:16:18;10.70;99.90
25933;DHT22;13731;51.166;4.474;2022-12-26T00:18:45;10.70;99.90
25933;DHT22;13731;51.166;4.474;2022-12-26T00:21:11;10.70;99.90
25933;DHT22;13731;51.166;4.474;2022-12-26T00:23:38;10.80;99.90
25933;DHT22;13731;51.166;4.474;2022-12-26T00:26:04;10.80;99.90
25933;DHT22;13731;51.166;4.474;2022-12-26T00:28:30;10.60;99.90
25933;DHT22;13731;51.166;4.474;2022-12-26T00:30:56;10.50;99.90
25933;DHT22;13731;51.166;4.474;2022-12-26T00:33:22;10.50;99.90
25933;DHT22;13731;51.166;4.474;2022-12-26T00:35:47;10.60;99.90
25933;DHT22;13731;51.166;4.474;2022-12-26T00:38:13;10.60;99.90
25933;DHT22;13731;51.166;4.474;2022-12-26T00:40:40;10.50;99.90
25933;DHT22;13731;51.166;4.474;2022-12-26T00:43:08;10.50;99.90
25933;DHT22;13731;51.166;4.474;2022-12-26T00:45:34;10.50;99.90
25933;DHT22;13731;51.166;4.474;2022-12-26T00:47:59;10.60;99.90
25933;DHT22;13731;51.166;4.474;2022-12-26T00:50:25;10.50;99.90
25933;DHT22;13731;51.166;4.474;2022-12-26T00:52:51;10.70;99.90
25933;DHT22;13731;51.166;4.474;2022-12-26T00:55:16;10.60;99.90
25933;DHT22;13731;51.166;4.474;2022-12-26T00:57:42;10.50;99.90
25933;DHT22;13731;51.166;4.474;2022-12-26T01:00:08;10.40;99.90
25933;DHT22;13731;51.166;4.474;2022-12-26T01:02:34;10.50;99.90
25933;DHT22;13731;51.166;4.474;2022-12-26T01:05:06;10.50;99.90
25933;DHT22;13731;51.166;4.474;2022-12-26T01:07:32;10.50;99.90
25933;DHT22;13731;51.166;4.474;2022-12-26T01:09:59;10.50;99.90
25933;DHT22;13731;51.166;4.474;2022-12-26T01:12:27;10.50;99.90
25933;DHT22;13731;51.166;4.474;2022-12-26T01:14:57;10.70;99.90
25933;DHT22;13731;51.166;4.474;2022-12-26T01:17:23;10.60;99.90
25933;DHT22;13731;51.166;4.474;2022-12-26T01:19:48;10.60;99.90
25933;DHT22;13731;51.166;4.474;2022-12-26T01:22:14;10.70;99.90
25933;DHT22;13731;51.166;4.474;2022-12-26T01:24:40;10.80;99.90
25933;DHT22;13731;51.166;4.474;2022-12-26T01:27:06;10.70;99.90
25933;DHT22;13731;51.166;4.474;2022-12-26T01:29:31;10.60;99.90
25933;DHT22;13731;51.166;4.474;2022-12-26T01:31:57;10.80;99.90
25933;DHT22;13731;51.166;4.474;2022-12-26T01:34:23;10.70;99.90
25933;DHT22;13731;51.166;4.474;2022-12-26T01:36:48;10.60;99.90
25933;DHT22;13731;51.166;4.474;2022-12-26T01:39:15;10.60;99.90
25933;DHT22;13731;51.166;4.474;2022-12-26T01:41:41;10.50;99.90
25933;DHT22;13731;51.166;4.474;2022-12-26T01:44:53;10.30;99.90
25933;DHT22;13731;51.166;4.474;2022-12-26T01:46:52;10.20;99.90
25933;DHT22;13731;51.166;4.474;2022-12-26T01:49:35;10.20;99.90
25933;DHT22;13731;51.166;4.474;2022-12-26T01:52:03;10.20;99.90
25933;DHT22;13731;51.166;4.474;2022-12-26T01:54:34;10.20;99.90
25933;DHT22;13731;51.166;4.474;2022-12-26T01:57:03;10.10;99.90
25933;DHT22;13731;51.166;4.474;2022-12-26T01:59:29;10.10;99.90
25933;DHT22;13731;51.166;4.474;2022-12-26T02:01:56;10.00;99.90
25933;DHT22;13731;51.166;4.474;2022-12-26T02:04:26;10.00;99.90
25933;DHT22;13731;51.166;4.474;2022-12-26T02:07:30;10.00;99.90
25933;DHT22;13731;51.166;4.474;2022-12-26T02:09:56;10.00;99.90
25933;DHT22;13731;51.166;4.474;2022-12-26T02:12:28;10.00;99.90
25933;DHT22;13731;51.166;4.474;2022-12-26T02:14:57;10.00;99.90
25933;DHT22;13731;51.166;4.474;2022-12-26T02:17:24;10.00;99.90
25933;DHT22;13731;51.166;4.474;2022-12-26T02:38:15;9.90;99.90
25933;DHT22;13731;51.166;4.474;2022-12-26T02:40:59;9.90;99.90
25933;DHT22;13731;51.166;4.474;2022-12-26T02:48:49;9.60;99.90
25933;DHT22;13731;51.166;4.474;2022-12-26T02:51:30;9.60;99.90
25933;DHT22;13731;51.166;4.474;2022-12-26T02:57:05;9.50;99.90
25933;DHT22;13731;51.166;4.474;2022-12-26T03:05:43;9.40;99.90
25933;DHT22;13731;51.166;4.474;2022-12-26T03:08:30;9.40;99.90
25933;DHT22;13731;51.166;4.474;2022-12-26T03:11:16;9.40;99.90
25933;DHT22;13731;51.166;4.474;2022-12-26T03:14:11;9.50;99.90
25933;DHT22;13731;51.166;4.474;2022-12-26T03:16:38;9.60;99.90
25933;DHT22;13731;51.166;4.474;2022-12-26T03:19:30;9.50;99.90
25933;DHT22;13731;51.166;4.474;2022-12-26T03:21:57;9.50;99.90
25933;DHT22;13731;51.166;4.474;2022-12-26T03:24:24;9.30;99.90
25933;DHT22;13731;51.166;4.474;2022-12-26T03:26:51;9.30;99.90
25933;DHT22;13731;51.166;4.474;2022-12-26T03:29:19;9.30;99.90
25933;DHT22;13731;51.166;4.474;2022-12-26T03:32:06;9.30;99.90
25933;DHT22;13731;51.166;4.474;2022-12-26T03:34:33;9.40;99.90
25933;DHT22;13731;51.166;4.474;2022-12-26T03:42:36;9.40;99.90
25933;DHT22;13731;51.166;4.474;2022-12-26T03:51:24;9.50;99.90
25933;DHT22;13731;51.166;4.474;2022-12-26T03:54:13;9.60;99.90
25933;DHT22;13731;51.166;4.474;2022-12-26T03:56:59;9.50;99.90
25933;DHT22;13731;51.166;4.474;2022-12-26T03:59:50;9.50;99.90
25933;DHT22;13731;51.166;4.474;2022-12-26T04:02:38;9.60;99.90
25933;DHT22;13731;51.166;4.474;2022-12-26T04:05:24;9.60;99.90
25933;DHT22;13731;51.166;4.474;2022-12-26T04:08:12;9.50;99.90
25933;DHT22;13731;51.166;4.474;2022-12-26T04:10:59;9.60;99.90
25933;DHT22;13731;51.166;4.474;2022-12-26T04:16:30;9.70;99.90
25933;DHT22;13731;51.166;4.474;2022-12-26T04:19:25;9.70;99.90
25933;DHT22;13731;51.166;4.474;2022-12-26T04:24:44;9.70;99.90
25933;DHT22;13731;51.166;4.474;2022-12-26T04:27:31;9.70;99.90
25933;DHT22;13731;51.166;4.474;2022-12-26T04:30:16;9.80;99.90
25933;DHT22;13731;51.166;4.474;2022-12-26T04:33:04;9.80;99.90
25933;DHT22;13731;51.166;4.474;2022-12-26T04:35:51;9.70;99.90
25933;DHT22;13731;51.166;4.474;2022-12-26T04:38:43;9.60;99.90
25933;DHT22;13731;51.166;4.474;2022-12-26T04:41:29;9.60;99.90
25933;DHT22;13731;51.166;4.474;2022-12-26T04:44:14;9.60;99.90
25933;DHT22;13731;51.166;4.474;2022-12-26T04:46:42;9.60;99.90
25933;DHT22;13731;51.166;4.474;2022-12-26T04:49:09;9.60;99.90
25933;DHT22;13731;51.166;4.474;2022-12-26T04:51:57;9.60;99.90
25933;DHT22;13731;51.166;4.474;2022-12-26T04:54:23;9.70;99.90
25933;DHT22;13731;51.166;4.474;2022-12-26T04:56:49;9.70;99.90
25933;DHT22;13731;51.166;4.474;2022-12-26T04:59:15;9.80;99.90
25933;DHT22;13731;51.166;4.474;2022-12-26T05:01:41;9.80;99.90
25933;DHT22;13731;51.166;4.474;2022-12-26T05:04:26;9.90;99.90
25933;DHT22;13731;51.166;4.474;2022-12-26T05:07:18;9.80;99.90
25933;DHT22;13731;51.166;4.474;2022-12-26T05:10:05;9.80;99.90
25933;DHT22;13731;51.166;4.474;2022-12-26T05:12:31;9.90;99.90
25933;DHT22;13731;51.166;4.474;2022-12-26T05:14:57;9.90;99.90
25933;DHT22;13731;51.166;4.474;2022-12-26T05:17:22;9.90;99.90
25933;DHT22;13731;51.166;4.474;2022-12-26T05:20:08;10.00;99.90
25933;DHT22;13731;51.166;4.474;2022-12-26T05:22:54;10.10;99.90
25933;DHT22;13731;51.166;4.474;2022-12-26T05:25:39;10.10;99.90
25933;DHT22;13731;51.166;4.474;2022-12-26T05:28:24;10.20;99.90
25933;DHT22;13731;51.166;4.474;2022-12-26T05:31:15;10.20;99.90
25933;DHT22;13731;51.166;4.474;2022-12-26T05:33:41;10.20;99.90
25933;DHT22;13731;51.166;4.474;2022-12-26T05:36:28;10.30;99.90
25933;DHT22;13731;51.166;4.474;2022-12-26T05:38:54;10.30;99.90
25933;DHT22;13731;51.166;4.474;2022-12-26T05:41:21;10.20;99.90
25933;DHT22;13731;51.166;4.474;2022-12-26T05:43:46;10.20;99.90
25933;DHT22;13731;51.166;4.474;2022-12-26T05:46:12;10.20;99.90
25933;DHT22;13731;51.166;4.474;2022-12-26T05:48:38;10.30;99.90
25933;DHT22;13731;51.166;4.474;2022-12-26T05:51:04;10.20;99.90
25933;DHT22;13731;51.166;4.474;2022-12-26T05:53:30;10.20;99.90
25933;DHT22;13731;51.166;4.474;2022-12-26T05:56:06;10.20;99.90
25933;DHT22;13731;51.166;4.474;2022-12-26T05:58:32;10.20;99.90
25933;DHT22;13731;51.166;4.474;2022-12-26T06:03:33;10.20;99.90
25933;DHT22;13731;51.166;4.474;2022-12-26T06:05:59;10.20;99.90
25933;DHT22;13731;51.166;4.474;2022-12-26T06:08:25;10.10;99.90
25933;DHT22;13731;51.166;4.474;2022-12-26T06:10:51;10.00;99.90
25933;DHT22;13731;51.166;4.474;2022-12-26T06:13:17;10.00;99.90
25933;DHT22;13731;51.166;4.474;2022-12-26T06:15:42;10.00;99.90
25933;DHT22;13731;51.166;4.474;2022-12-26T06:18:08;10.10;99.90
25933;DHT22;13731;51.166;4.474;2022-12-26T06:20:36;10.00;99.90
25933;DHT22;13731;51.166;4.474;2022-12-26T06:23:02;10.00;99.90
25933;DHT22;13731;51.166;4.474;2022-12-26T06:25:28;10.00;99.90
25933;DHT22;13731;51.166;4.474;2022-12-26T06:27:53;9.90;99.90
25933;DHT22;13731;51.166;4.474;2022-12-26T06:30:19;9.90;99.90
25933;DHT22;13731;51.166;4.474;2022-12-26T06:32:45;10.00;99.90
25933;DHT22;13731;51.166;4.474;2022-12-26T06:35:10;10.00;99.90
25933;DHT22;13731;51.166;4.474;2022-12-26T06:37:37;10.00;99.90
25933;DHT22;13731;51.166;4.474;2022-12-26T06:40:03;9.90;99.90
25933;DHT22;13731;51.166;4.474;2022-12-26T06:42:30;9.90;99.90
25933;DHT22;13731;51.166;4.474;2022-12-26T06:44:57;9.90;99.90
25933;DHT22;13731;51.166;4.474;2022-12-26T06:47:23;9.90;99.90
25933;DHT22;13731;51.166;4.474;2022-12-26T06:49:48;10.00;99.90
25933;DHT22;13731;51.166;4.474;2022-12-26T06:52:14;9.90;99.90
25933;DHT22;13731;51.166;4.474;2022-12-26T06:54:40;9.80;99.90
25933;DHT22;13731;51.166;4.474;2022-12-26T06:57:05;9.90;99.90
25933;DHT22;13731;51.166;4.474;2022-12-26T06:59:31;9.80;99.90
25933;DHT22;13731;51.166;4.474;2022-12-26T07:01:57;9.90;99.90
25933;DHT22;13731;51.166;4.474;2022-12-26T07:04:23;10.00;99.90
25933;DHT22;13731;51.166;4.474;2022-12-26T07:06:49;10.00;99.90
25933;DHT22;13731;51.166;4.474;2022-12-26T07:09:15;10.00;99.90
25933;DHT22;13731;51.166;4.474;2022-12-26T07:11:42;10.00;99.90
25933;DHT22;13731;51.166;4.474;2022-12-26T07:14:08;9.90;99.90
25933;DHT22;13731;51.166;4.474;2022-12-26T07:16:34;10.00;99.90
25933;DHT22;13731;51.166;4.474;2022-12-26T07:19:00;10.00;99.90
25933;DHT22;13731;51.166;4.474;2022-12-26T07:21:26;10.10;99.90
25933;DHT22;13731;51.166;4.474;2022-12-26T07:23:52;10.10;99.90
25933;DHT22;13731;51.166;4.474;2022-12-26T07:26:18;10.10;99.90
25933;DHT22;13731;51.166;4.474;2022-12-26T07:28:44;10.20;99.90
25933;DHT22;13731;51.166;4.474;2022-12-26T07:31:17;10.10;99.90
25933;DHT22;13731;51.166;4.474;2022-12-26T07:33:50;10.10;99.90
25933;DHT22;13731;51.166;4.474;2022-12-26T07:36:16;10.10;99.90
25933;DHT22;13731;51.166;4.474;2022-12-26T07:38:42;10.00;99.90
25933;DHT22;13731;51.166;4.474;2022-12-26T07:41:08;10.00;99.90
25933;DHT22;13731;51.166;4.474;2022-12-26T07:43:52;10.00;99.90
25933;DHT22;13731;51.166;4.474;2022-12-26T07:46:18;10.00;99.90
25933;DHT22;13731;51.166;4.474;2022-12-26T07:48:44;9.90;99.90
25933;DHT22;13731;51.166;4.474;2022-12-26T07:51:10;9.80;99.90
25933;DHT22;13731;51.166;4.474;2022-12-26T07:53:35;9.90;99.90
25933;DHT22;13731;51.166;4.474;2022-12-26T07:56:01;9.90;99.90
25933;DHT22;13731;51.166;4.474;2022-12-26T07:58:27;9.90;99.90
25933;DHT22;13731;51.166;4.474;2022-12-26T08:00:53;10.00;99.90
25933;DHT22;13731;51.166;4.474;2022-12-26T08:03:19;9.90;99.90
25933;DHT22;13731;51.166;4.474;2022-12-26T08:05:45;10.00;99.90
25933;DHT22;13731;51.166;4.474;2022-12-26T08:08:11;10.00;99.90
25933;DHT22;13731;51.166;4.474;2022-12-26T08:10:37;9.90;99.90
25933;DHT22;13731;51.166;4.474;2022-12-26T08:13:02;9.90;99.90
25933;DHT22;13731;51.166;4.474;2022-12-26T08:15:28;10.00;99.90
25933;DHT22;13731;51.166;4.474;2022-12-26T08:17:54;10.10;99.90
25933;DHT22;13731;51.166;4.474;2022-12-26T08:20:19;10.10;99.90
25933;DHT22;13731;51.166;4.474;2022-12-26T08:22:45;10.10;99.90
25933;DHT22;13731;51.166;4.474;2022-12-26T08:25:11;10.10;99.90
25933;DHT22;13731;51.166;4.474;2022-12-26T08:27:36;10.20;99.90
25933;DHT22;13731;51.166;4.474;2022-12-26T08:30:02;10.30;99.90
25933;DHT22;13731;51.166;4.474;2022-12-26T08:32:29;10.40;99.90
25933;DHT22;13731;51.166;4.474;2022-12-26T08:34:55;10.50;99.90
25933;DHT22;13731;51.166;4.474;2022-12-26T08:37:20;10.40;99.90
25933;DHT22;13731;51.166;4.474;2022-12-26T08:39:48;10.40;99.90
25933;DHT22;13731;51.166;4.474;2022-12-26T08:42:14;10.40;99.90
25933;DHT22;13731;51.166;4.474;2022-12-26T08:44:40;10.50;99.90
25933;DHT22;13731;51.166;4.474;2022-12-26T08:47:05;10.60;99.90
25933;DHT22;13731;51.166;4.474;2022-12-26T08:49:31;10.70;99.90
25933;DHT22;13731;51.166;4.474;2022-12-26T08:51:57;10.90;99.90
25933;DHT22;13731;51.166;4.474;2022-12-26T08:54:22;11.10;99.90
25933;DHT22;13731;51.166;4.474;2022-12-26T08:56:48;11.20;99.90
25933;DHT22;13731;51.166;4.474;2022-12-26T08:59:14;11.30;99.90
25933;DHT22;13731;51.166;4.474;2022-12-26T09:01:40;11.20;99.90
25933;DHT22;13731;51.166;4.474;2022-12-26T09:04:06;11.30;99.90
25933;DHT22;13731;51.166;4.474;2022-12-26T09:06:32;11.50;99.90
25933;DHT22;13731;51.166;4.474;2022-12-26T09:08:58;11.40;99.90
25933;DHT22;13731;51.166;4.474;2022-12-26T09:11:25;11.40;99.90
25933;DHT22;13731;51.166;4.474;2022-12-26T09:13:51;11.40;99.90
25933;DHT22;13731;51.166;4.474;2022-12-26T09:16:18;11.40;99.90
25933;DHT22;13731;51.166;4.474;2022-12-26T09:18:44;11.50;99.90
25933;DHT22;13731;51.166;4.474;2022-12-26T09:21:11;11.40;99.90
25933;DHT22;13731;51.166;4.474;2022-12-26T09:23:37;11.30;99.90
25933;DHT22;13731;51.166;4.474;2022-12-26T09:26:07;11.30;99.90
25933;DHT22;13731;51.166;4.474;2022-12-26T09:28:33;11.40;99.90
25933;DHT22;13731;51.166;4.474;2022-12-26T09:31:00;11.30;99.90
25933;DHT22;13731;51.166;4.474;2022-12-26T09:33:26;11.20;99.90
25933;DHT22;13731;51.166;4.474;2022-12-26T09:35:52;11.20;99.90
25933;DHT22;13731;51.166;4.474;2022-12-26T09:38:17;11.20;99.90
25933;DHT22;13731;51.166;4.474;2022-12-26T09:45:59;11.10;99.90
25933;DHT22;13731;51.166;4.474;2022-12-26T09:48:36;11.10;99.90
25933;DHT22;13731;51.166;4.474;2022-12-26T09:51:03;11.10;99.90
25933;DHT22;13731;51.166;4.474;2022-12-26T09:53:33;11.10;99.90
25933;DHT22;13731;51.166;4.474;2022-12-26T09:56:04;11.30;99.90
25933;DHT22;13731;51.166;4.474;2022-12-26T09:58:41;11.30;99.90
25933;DHT22;13731;51.166;4.474;2022-12-26T10:01:18;11.20;99.90
25933;DHT22;13731;51.166;4.474;2022-12-26T10:03:45;11.30;99.90
25933;DHT22;13731;51.166;4.474;2022-12-26T10:06:16;11.20;99.90
25933;DHT22;13731;51.166;4.474;2022-12-26T10:24:13;10.60;99.90
25933;DHT22;13731;51.166;4.474;2022-12-26T10:26:42;10.40;1.00
25933;DHT22;13731;51.166;4.474;2022-12-26T10:34:29;9.70;1.00
25933;DHT22;13731;51.166;4.474;2022-12-26T10:37:09;9.80;1.00
25933;DHT22;13731;51.166;4.474;2022-12-26T10:39:48;9.70;1.00
25933;DHT22;13731;51.166;4.474;2022-12-26T10:42:37;9.70;1.00
25933;DHT22;13731;51.166;4.474;2022-12-26T10:45:14;9.60;1.00
25933;DHT22;13731;51.166;4.474;2022-12-26T10:47:40;9.60;1.00
25933;DHT22;13731;51.166;4.474;2022-12-26T10:50:13;9.70;1.00
25933;DHT22;13731;51.166;4.474;2022-12-26T10:52:39;9.80;99.90
25933;DHT22;13731;51.166;4.474;2022-12-26T10:55:05;9.90;64.10
25933;DHT22;13731;51.166;4.474;2022-12-26T10:57:33;10.00;1.00
25933;DHT22;13731;51.166;4.474;2022-12-26T11:00:00;10.00;1.00
25933;DHT22;13731;51.166;4.474;2022-12-26T11:02:27;9.90;1.00
25933;DHT22;13731;51.166;4.474;2022-12-26T11:05:00;10.10;1.00
25933;DHT22;13731;51.166;4.474;2022-12-26T11:07:28;10.10;1.00
25933;DHT22;13731;51.166;4.474;2022-12-26T11:09:55;10.00;1.00
25933;DHT22;13731;51.166;4.474;2022-12-26T11:12:31;10.10;1.00
25933;DHT22;13731;51.166;4.474;2022-12-26T11:14:59;10.20;1.00
25933;DHT22;13731;51.166;4.474;2022-12-26T11:17:29;10.30;99.90
25933;DHT22;13731;51.166;4.474;2022-12-26T11:20:10;10.60;99.90
25933;DHT22;13731;51.166;4.474;2022-12-26T11:22:36;10.60;99.90
25933;DHT22;13731;51.166;4.474;2022-12-26T11:27:30;10.10;1.00
25933;DHT22;13731;51.166;4.474;2022-12-26T11:32:41;10.00;99.90
25933;DHT22;13731;51.166;4.474;2022-12-26T11:35:20;10.10;12.20
25933;DHT22;13731;51.166;4.474;2022-12-26T11:37:49;10.20;1.00
25933;DHT22;13731;51.166;4.474;2022-12-26T11:40:26;10.00;1.00
25933;DHT22;13731;51.166;4.474;2022-12-26T11:42:54;10.10;1.00
25933;DHT22;13731;51.166;4.474;2022-12-26T11:45:25;10.00;57.50
25933;DHT22;13731;51.166;4.474;2022-12-26T11:47:52;10.00;51.80
25933;DHT22;13731;51.166;4.474;2022-12-26T11:50:18;9.90;1.00
25933;DHT22;13731;51.166;4.474;2022-12-26T11:57:56;10.10;1.00
25933;DHT22;13731;51.166;4.474;2022-12-26T12:00:22;10.30;99.90
25933;DHT22;13731;51.166;4.474;2022-12-26T12:02:49;10.00;99.90
25933;DHT22;13731;51.166;4.474;2022-12-26T12:05:19;9.80;99.90
25933;DHT22;13731;51.166;4.474;2022-12-26T12:07:55;9.80;99.90
25933;DHT22;13731;51.166;4.474;2022-12-26T12:13:12;9.80;99.90
25933;DHT22;13731;51.166;4.474;2022-12-26T12:29:06;9.90;99.90
25933;DHT22;13731;51.166;4.474;2022-12-26T12:37:15;9.50;1.00
25933;DHT22;13731;51.166;4.474;2022-12-26T12:39:59;9.50;1.00
25933;DHT22;13731;51.166;4.474;2022-12-26T12:42:43;9.40;1.00
25933;DHT22;13731;51.166;4.474;2022-12-26T12:45:20;9.40;72.30
25933;DHT22;13731;51.166;4.474;2022-12-26T12:50:20;9.40;99.90
25933;DHT22;13731;51.166;4.474;2022-12-26T13:00:13;9.30;30.10
25933;DHT22;13731;51.166;4.474;2022-12-26T13:03:01;9.20;99.90
25933;DHT22;13731;51.166;4.474;2022-12-26T13:08:15;9.30;23.00
25933;DHT22;13731;51.166;4.474;2022-12-26T13:10:55;9.40;1.00
25933;DHT22;13731;51.166;4.474;2022-12-26T13:13:26;9.50;1.00
25933;DHT22;13731;51.166;4.474;2022-12-26T13:15:56;9.20;1.00
25933;DHT22;13731;51.166;4.474;2022-12-26T13:18:26;9.20;1.00
25933;DHT22;13731;51.166;4.474;2022-12-26T13:20:53;9.20;99.90
25933;DHT22;13731;51.166;4.474;2022-12-26T13:23:27;9.40;1.00
25933;DHT22;13731;51.166;4.474;2022-12-26T13:26:19;9.40;99.90
25933;DHT22;13731;51.166;4.474;2022-12-26T13:29:09;9.60;99.90
25933;DHT22;13731;51.166;4.474;2022-12-26T13:31:32;9.80;1.00
25933;DHT22;13731;51.166;4.474;2022-12-26T13:33:59;9.70;52.20
25933;DHT22;13731;51.166;4.474;2022-12-26T13:36:41;9.60;84.40
25933;DHT22;13731;51.166;4.474;2022-12-26T13:41:37;9.70;3.00
25933;DHT22;13731;51.166;4.474;2022-12-26T13:44:23;9.90;1.00
25933;DHT22;13731;51.166;4.474;2022-12-26T13:55:18;11.50;1.00
25933;DHT22;13731;51.166;4.474;2022-12-26T14:07:56;9.50;99.90
25933;DHT22;13731;51.166;4.474;2022-12-26T14:10:45;9.40;99.90
25933;DHT22;13731;51.166;4.474;2022-12-26T14:23:37;9.20;99.90
25933;DHT22;13731;51.166;4.474;2022-12-26T14:26:02;8.70;99.90
25933;DHT22;13731;51.166;4.474;2022-12-26T14:31:17;8.50;1.00
25933;DHT22;13731;51.166;4.474;2022-12-26T14:41:16;8.10;1.00
25933;DHT22;13731;51.166;4.474;2022-12-26T14:51:43;7.90;12.60
25933;DHT22;13731;51.166;4.474;2022-12-26T14:56:50;7.70;93.10
25933;DHT22;13731;51.166;4.474;2022-12-26T15:01:48;7.60;79.00
25933;DHT22;13731;51.166;4.474;2022-12-26T15:09:40;7.70;1.00
25933;DHT22;13731;51.166;4.474;2022-12-26T15:27:53;7.20;1.00
25933;DHT22;13731;51.166;4.474;2022-12-26T15:33:11;7.10;99.90
25933;DHT22;13731;51.166;4.474;2022-12-26T15:35:49;6.90;1.00
25933;DHT22;13731;51.166;4.474;2022-12-26T15:41:12;6.80;1.00
25933;DHT22;13731;51.166;4.474;2022-12-26T16:01:03;6.30;1.00
25933;DHT22;13731;51.166;4.474;2022-12-26T16:06:14;6.20;48.10
25933;DHT22;13731;51.166;4.474;2022-12-26T16:11:19;6.10;99.90
25933;DHT22;13731;51.166;4.474;2022-12-26T16:13:53;6.10;99.90
25933;DHT22;13731;51.166;4.474;2022-12-26T16:16:22;6.10;99.90
25933;DHT22;13731;51.166;4.474;2022-12-26T16:18:48;6.10;99.90
25933;DHT22;13731;51.166;4.474;2022-12-26T16:21:14;6.10;1.00
25933;DHT22;13731;51.166;4.474;2022-12-26T16:23:59;6.00;1.00
25933;DHT22;13731;51.166;4.474;2022-12-26T16:26:26;6.00;1.00
25933;DHT22;13731;51.166;4.474;2022-12-26T16:28:53;5.90;1.00
25933;DHT22;13731;51.166;4.474;2022-12-26T16:31:20;5.90;1.00
25933;DHT22;13731;51.166;4.474;2022-12-26T16:33:48;5.80;99.90
25933;DHT22;13731;51.166;4.474;2022-12-26T16:36:22;5.70;99.90
25933;DHT22;13731;51.166;4.474;2022-12-26T16:38:48;5.60;1.00
25933;DHT22;13731;51.166;4.474;2022-12-26T16:41:37;5.60;1.00
25933;DHT22;13731;51.166;4.474;2022-12-26T16:44:20;5.60;1.00
25933;DHT22;13731;51.166;4.474;2022-12-26T16:46:46;5.60;1.00
25933;DHT22;13731;51.166;4.474;2022-12-26T16:49:11;5.50;96.30
25933;DHT22;13731;51.166;4.474;2022-12-26T16:54:23;5.50;99.90
25933;DHT22;13731;51.166;4.474;2022-12-26T17:02:13;5.40;99.90
25933;DHT22;13731;51.166;4.474;2022-12-26T17:04:39;5.40;99.90
25933;DHT22;13731;51.166;4.474;2022-12-26T17:07:08;5.40;99.90
25933;DHT22;13731;51.166;4.474;2022-12-26T17:09:42;5.30;99.90
25933;DHT22;13731;51.166;4.474;2022-12-26T17:12:53;5.30;99.90
25933;DHT22;13731;51.166;4.474;2022-12-26T17:14:59;5.30;99.90
25933;DHT22;13731;51.166;4.474;2022-12-26T17:17:30;5.30;99.90
25933;DHT22;13731;51.166;4.474;2022-12-26T17:19:57;5.20;99.90
25933;DHT22;13731;51.166;4.474;2022-12-26T17:22:34;5.20;1.00
25933;DHT22;13731;51.166;4.474;2022-12-26T17:25:17;5.10;1.00
25933;DHT22;13731;51.166;4.474;2022-12-26T17:27:45;5.10;35.70
25933;DHT22;13731;51.166;4.474;2022-12-26T17:30:30;5.10;1.00
25933;DHT22;13731;51.166;4.474;2022-12-26T17:33:11;5.10;99.90
25933;DHT22;13731;51.166;4.474;2022-12-26T17:35:38;5.10;85.50
25933;DHT22;13731;51.166;4.474;2022-12-26T17:38:11;5.10;99.90
25933;DHT22;13731;51.166;4.474;2022-12-26T17:40:39;5.00;99.90
25933;DHT22;13731;51.166;4.474;2022-12-26T17:45:41;4.90;99.90
25933;DHT22;13731;51.166;4.474;2022-12-26T17:48:08;4.90;99.90
25933;DHT22;13731;51.166;4.474;2022-12-26T17:50:35;5.00;99.90
25933;DHT22;13731;51.166;4.474;2022-12-26T17:55:30;4.90;1.00
25933;DHT22;13731;51.166;4.474;2022-12-26T17:57:56;4.80;1.00
25933;DHT22;13731;51.166;4.474;2022-12-26T18:00:23;4.90;1.00
25933;DHT22;13731;51.166;4.474;2022-12-26T18:02:49;4.90;1.00
25933;DHT22;13731;51.166;4.474;2022-12-26T18:05:15;4.80;99.90
25933;DHT22;13731;51.166;4.474;2022-12-26T18:07:41;4.80;1.00
25933;DHT22;13731;51.166;4.474;2022-12-26T18:10:19;4.90;99.90
25933;DHT22;13731;51.166;4.474;2022-12-26T18:12:45;4.90;99.90
25933;DHT22;13731;51.166;4.474;2022-12-26T18:15:11;5.00;99.90
25933;DHT22;13731;51.166;4.474;2022-12-26T18:17:37;4.80;1.00
25933;DHT22;13731;51.166;4.474;2022-12-26T18:20:03;4.70;99.90
25933;DHT22;13731;51.166;4.474;2022-12-26T18:22:29;4.70;99.90
25933;DHT22;13731;51.166;4.474;2022-12-26T18:24:55;4.60;1.00
25933;DHT22;13731;51.166;4.474;2022-12-26T18:27:31;4.70;99.90
25933;DHT22;13731;51.166;4.474;2022-12-26T18:29:57;4.70;99.90
25933;DHT22;13731;51.166;4.474;2022-12-26T18:32:25;4.80;99.90
25933;DHT22;13731;51.166;4.474;2022-12-26T18:34:51;4.90;99.90
25933;DHT22;13731;51.166;4.474;2022-12-26T18:37:17;4.70;99.90
25933;DHT22;13731;51.166;4.474;2022-12-26T18:39:42;4.80;99.90
25933;DHT22;13731;51.166;4.474;2022-12-26T18:42:12;4.80;99.90
25933;DHT22;13731;51.166;4.474;2022-12-26T18:44:38;4.70;99.90
25933;DHT22;13731;51.166;4.474;2022-12-26T18:47:04;4.70;1.00
25933;DHT22;13731;51.166;4.474;2022-12-26T18:49:30;4.80;1.00
25933;DHT22;13731;51.166;4.474;2022-12-26T18:51:55;4.80;1.00
25933;DHT22;13731;51.166;4.474;2022-12-26T18:54:21;4.90;99.90
25933;DHT22;13731;51.166;4.474;2022-12-26T18:56:47;4.80;99.90
25933;DHT22;13731;51.166;4.474;2022-12-26T18:59:12;4.80;99.90
25933;DHT22;13731;51.166;4.474;2022-12-26T19:01:38;4.80;99.90
25933;DHT22;13731;51.166;4.474;2022-12-26T19:04:04;4.80;99.90
25933;DHT22;13731;51.166;4.474;2022-12-26T19:06:30;4.80;99.90
25933;DHT22;13731;51.166;4.474;2022-12-26T19:08:59;4.90;99.90
25933;DHT22;13731;51.166;4.474;2022-12-26T19:11:25;4.90;99.90
25933;DHT22;13731;51.166;4.474;2022-12-26T19:13:51;4.80;99.90
25933;DHT22;13731;51.166;4.474;2022-12-26T19:16:17;4.70;33.20
25933;DHT22;13731;51.166;4.474;2022-12-26T19:18:43;4.60;99.90
25933;DHT22;13731;51.166;4.474;2022-12-26T19:21:10;4.50;1.00
25933;DHT22;13731;51.166;4.474;2022-12-26T19:23:36;4.60;1.00
25933;DHT22;13731;51.166;4.474;2022-12-26T19:26:06;4.50;1.00
25933;DHT22;13731;51.166;4.474;2022-12-26T19:28:32;4.30;99.90
25933;DHT22;13731;51.166;4.474;2022-12-26T19:31:04;4.20;99.90
25933;DHT22;13731;51.166;4.474;2022-12-26T19:33:30;4.10;1.00
25933;DHT22;13731;51.166;4.474;2022-12-26T19:35:55;4.20;1.00
25933;DHT22;13731;51.166;4.474;2022-12-26T19:38:21;4.10;1.00
25933;DHT22;13731;51.166;4.474;2022-12-26T19:40:47;4.10;48.40
25933;DHT22;13731;51.166;4.474;2022-12-26T19:43:12;4.00;91.40
25933;DHT22;13731;51.166;4.474;2022-12-26T19:45:38;4.00;99.90
25933;DHT22;13731;51.166;4.474;2022-12-26T19:48:04;4.00;99.90
25933;DHT22;13731;51.166;4.474;2022-12-26T19:50:30;3.90;99.90
25933;DHT22;13731;51.166;4.474;2022-12-26T19:52:56;3.90;99.90
25933;DHT22;13731;51.166;4.474;2022-12-26T19:55:21;3.90;99.90
25933;DHT22;13731;51.166;4.474;2022-12-26T19:57:48;3.90;99.90
25933;DHT22;13731;51.166;4.474;2022-12-26T20:00:14;4.00;99.90
25933;DHT22;13731;51.166;4.474;2022-12-26T20:02:39;4.00;99.90